createdAt,value
2019-04-03T00:01:45.078Z,1.29
2019-04-03T00:04:34.399Z,1.25
2019-04-03T00:07:05.532Z,1.25
2019-04-03T00:09:37.577Z,1.22
2019-04-03T00:12:07.055Z,1.19
2019-04-03T00:14:36.680Z,1.18
2019-04-03T00:17:06.408Z,1.15
2019-04-03T00:19:35.930Z,1.12
2019-04-03T00:22:24.395Z,1.08
2019-04-03T00:27:53.226Z,1.06
2019-04-03T00:35:54.005Z,1.02
2019-04-03T00:38:25.750Z,1.03
2019-04-03T00:40:55.740Z,1.02
2019-04-03T00:43:26.887Z,1.04
2019-04-03T00:46:29.522Z,1.05
2019-04-03T00:48:55.348Z,1.05
2019-04-03T00:51:43.751Z,1.04
2019-04-03T00:54:13.524Z,1.04
2019-04-03T00:57:04.277Z,1.02
2019-04-03T00:59:34.364Z,1.02
2019-04-03T01:02:04.264Z,0.96
2019-04-03T01:04:53.104Z,1.05
2019-04-03T01:07:22.805Z,1.08
2019-04-03T01:13:12.897Z,1.10
2019-04-03T01:18:50.621Z,1.10
2019-04-03T01:21:20.241Z,1.14
2019-04-03T01:24:11.251Z,1.17
2019-04-03T01:29:54.660Z,1.20
2019-04-03T01:32:24.679Z,1.22
2019-04-03T01:35:13.270Z,1.23
2019-04-03T01:40:25.673Z,1.25
2019-04-03T01:43:14.643Z,1.30
2019-04-03T01:46:03.722Z,1.30
2019-04-03T01:48:33.457Z,1.33
2019-04-03T01:51:03.136Z,1.37
2019-04-03T01:53:33.253Z,1.31
2019-04-03T01:56:05.108Z,1.41
2019-04-03T02:01:15.685Z,1.49
2019-04-03T02:03:45.469Z,1.49
2019-04-03T02:06:14.910Z,1.48
2019-04-03T02:08:45.345Z,1.51
2019-04-03T02:11:18.087Z,1.54
2019-04-03T02:13:47.432Z,1.56
2019-04-03T02:16:29.212Z,1.56
2019-04-03T02:18:58.701Z,1.59
2019-04-03T02:21:30.594Z,1.62
2019-04-03T02:24:21.309Z,1.62
2019-04-03T02:29:46.439Z,1.66
2019-04-03T02:32:16.161Z,1.66
2019-04-03T02:34:45.633Z,1.68
2019-04-03T02:37:17.169Z,1.70
2019-04-03T02:39:46.384Z,1.70
2019-04-03T02:42:15.835Z,1.70
2019-04-03T02:44:45.387Z,1.72
2019-04-03T02:47:16.260Z,1.72
2019-04-03T02:52:34.450Z,1.75
2019-04-03T02:55:24.784Z,1.74
2019-04-03T02:57:54.470Z,1.74
2019-04-03T03:00:24.043Z,1.76
2019-04-03T03:03:24.631Z,1.81
2019-04-03T03:06:05.259Z,1.83
2019-04-03T03:08:40.358Z,1.83
2019-04-03T03:11:28.893Z,1.85
2019-04-03T03:13:58.545Z,1.85
2019-04-03T03:16:28.537Z,1.81
2019-04-03T03:19:20.251Z,1.85
2019-04-03T03:22:10.288Z,1.84
2019-04-03T03:30:41.836Z,1.86
2019-04-03T03:33:32.730Z,1.87
2019-04-03T03:36:27.542Z,1.92
2019-04-03T03:39:16.881Z,1.99
2019-04-03T03:42:06.750Z,1.99
2019-04-03T03:47:52.091Z,2.00
2019-04-03T03:50:49.106Z,2.03
2019-04-03T03:53:19.087Z,2.04
2019-04-03T03:56:00.236Z,2.05
2019-04-03T03:58:30.197Z,2.11
2019-04-03T04:01:19.187Z,2.19
2019-04-03T04:03:48.996Z,2.16
2019-04-03T04:06:22.520Z,2.16
2019-04-03T04:09:10.957Z,2.31
2019-04-03T04:12:04.401Z,2.31
2019-04-03T04:14:31.996Z,2.31
2019-04-03T04:17:02.026Z,2.36
2019-04-03T04:19:31.725Z,2.39
2019-04-03T04:22:01.299Z,2.42
2019-04-03T04:30:27.472Z,2.61
2019-04-03T04:33:17.225Z,2.61
2019-04-03T04:35:47.059Z,2.65
2019-04-03T04:38:17.015Z,2.69
2019-04-03T04:40:46.416Z,2.75
2019-04-03T04:43:16.250Z,2.74
2019-04-03T04:48:45.339Z,2.90
2019-04-03T04:51:14.955Z,2.95
2019-04-03T04:53:44.720Z,3.00
2019-04-03T04:56:15.557Z,3.00
2019-04-03T05:01:33.635Z,3.17
2019-04-03T05:04:03.828Z,3.25
2019-04-03T05:06:34.914Z,3.31
2019-04-03T05:12:09.771Z,3.44
2019-04-03T05:14:39.497Z,3.49
2019-04-03T05:17:09.190Z,3.55
2019-04-03T05:19:38.934Z,3.62
2019-04-03T05:22:08.399Z,3.65
2019-04-03T05:24:49.069Z,3.71
2019-04-03T05:27:18.475Z,3.76
2019-04-03T05:29:48.392Z,3.80
2019-04-03T05:32:17.773Z,3.86
2019-04-03T05:35:01.546Z,3.93
2019-04-03T05:37:30.960Z,3.98
2019-04-03T05:40:00.568Z,4.04
2019-04-03T05:42:30.169Z,4.08
2019-04-03T05:44:59.579Z,4.11
2019-04-03T05:47:29.242Z,4.16
2019-04-03T05:49:58.637Z,4.20
2019-04-03T05:52:28.318Z,4.22
2019-04-03T05:54:57.787Z,4.28
2019-04-03T05:57:28.908Z,4.32
2019-04-03T06:00:01.326Z,4.35
2019-04-03T06:02:29.543Z,4.37
2019-04-03T06:04:58.965Z,4.46
2019-04-03T06:07:28.406Z,4.46
2019-04-03T06:10:16.818Z,4.57
2019-04-03T06:12:46.668Z,4.57
2019-04-03T06:15:36.490Z,4.64
2019-04-03T06:18:06.138Z,4.63
2019-04-03T06:20:35.741Z,4.75
2019-04-03T06:23:24.166Z,4.96
2019-04-03T06:25:53.811Z,4.96
2019-04-03T06:28:23.423Z,5.08
2019-04-03T06:33:31.087Z,5.34
2019-04-03T06:36:10.222Z,5.49
2019-04-03T06:38:42.604Z,5.63
2019-04-03T06:41:12.022Z,5.72
2019-04-03T06:43:53.977Z,5.80
2019-04-03T06:46:22.608Z,5.87
2019-04-03T06:48:55.698Z,5.96
2019-04-03T06:51:25.325Z,6.02
2019-04-03T06:53:54.818Z,6.12
2019-04-03T06:56:24.181Z,6.18
2019-04-03T06:58:53.872Z,6.24
2019-04-03T07:01:23.284Z,6.34
2019-04-03T07:03:52.803Z,6.41
2019-04-03T07:06:22.566Z,6.53
2019-04-03T07:08:52.240Z,6.61
2019-04-03T07:12:01.171Z,6.67
2019-04-03T07:14:30.790Z,6.78
2019-04-03T07:17:01.479Z,6.88
2019-04-03T07:19:31.357Z,6.92
2019-04-03T07:30:23.644Z,7.22
2019-04-03T07:33:11.999Z,7.38
2019-04-03T07:35:43.673Z,7.42
2019-04-03T07:38:13.076Z,7.56
2019-04-03T07:40:42.568Z,7.66
2019-04-03T07:43:11.990Z,7.73
2019-04-03T07:45:43.914Z,7.79
2019-04-03T07:51:12.834Z,7.94
2019-04-03T07:53:53.397Z,8.08
2019-04-03T07:59:16.504Z,8.33
2019-04-03T08:01:45.906Z,8.41
2019-04-03T08:04:16.588Z,8.46
2019-04-03T08:06:46.523Z,8.52
2019-04-03T08:09:28.041Z,8.53
2019-04-03T08:11:57.757Z,8.55
2019-04-03T08:14:46.095Z,8.66
2019-04-03T08:17:16.718Z,8.73
2019-04-03T08:22:54.076Z,8.93
2019-04-03T08:25:23.475Z,8.98
2019-04-03T08:27:55.377Z,9.07
2019-04-03T08:31:03.462Z,9.09
2019-04-03T08:33:33.627Z,9.12
2019-04-03T08:36:06.818Z,9.23
2019-04-03T08:38:36.434Z,9.34
2019-04-03T08:41:07.520Z,9.44
2019-04-03T08:46:35.357Z,9.61
2019-04-03T08:49:04.939Z,9.75
2019-04-03T08:51:34.907Z,9.87
2019-04-03T08:54:04.479Z,9.89
2019-04-03T08:56:34.097Z,9.97
2019-04-03T08:59:24.325Z,9.99
2019-04-03T09:01:55.267Z,10.05
2019-04-03T09:04:25.000Z,10.13
2019-04-03T09:06:54.704Z,10.19
2019-04-03T09:09:24.085Z,10.20
2019-04-03T09:11:53.563Z,10.27
2019-04-03T09:14:24.994Z,10.39
2019-04-03T09:16:54.363Z,10.46
2019-04-03T09:22:01.746Z,10.42
2019-04-03T09:24:31.206Z,10.45
2019-04-03T09:27:00.736Z,10.52
2019-04-03T09:29:30.077Z,10.54
2019-04-03T09:32:18.369Z,10.65
2019-04-03T09:34:59.098Z,10.80
2019-04-03T09:37:45.322Z,10.97
2019-04-03T09:43:23.223Z,11.17
2019-04-03T09:45:53.813Z,11.20
2019-04-03T09:48:45.348Z,11.25
2019-04-03T09:51:16.024Z,11.34
2019-04-03T09:53:46.182Z,11.35
2019-04-03T09:56:15.595Z,11.38
2019-04-03T09:58:45.441Z,11.48
2019-04-03T10:01:17.983Z,11.65
2019-04-03T10:03:46.038Z,11.70
2019-04-03T10:06:15.472Z,11.75
2019-04-03T10:08:45.162Z,11.80
2019-04-03T10:11:15.673Z,11.87
2019-04-03T10:13:45.947Z,11.92
2019-04-03T10:16:27.423Z,12.01
2019-04-03T10:18:56.975Z,12.07
2019-04-03T10:21:28.911Z,12.18
2019-04-03T10:23:59.985Z,12.19
2019-04-03T10:26:31.682Z,12.21
2019-04-03T10:29:00.755Z,12.15
2019-04-03T10:31:30.379Z,12.10
2019-04-03T10:34:00.911Z,12.06
2019-04-03T10:36:31.793Z,12.00
2019-04-03T10:39:01.213Z,11.99
2019-04-03T10:41:30.610Z,12.06
2019-04-03T10:44:00.368Z,12.05
2019-04-03T10:46:29.742Z,12.05
2019-04-03T10:49:00.508Z,12.05
2019-04-03T10:51:31.446Z,12.07
2019-04-03T10:54:01.265Z,12.12
2019-04-03T10:56:31.585Z,12.09
2019-04-03T10:59:11.069Z,12.21
2019-04-03T11:01:32.873Z,12.35
2019-04-03T11:04:02.258Z,12.34
2019-04-03T11:06:31.742Z,12.37
2019-04-03T11:09:01.149Z,12.32
2019-04-03T11:11:30.661Z,12.35
2019-04-03T11:14:02.425Z,12.40
2019-04-03T11:16:31.421Z,12.42
2019-04-03T11:19:05.018Z,12.44
2019-04-03T11:21:32.279Z,12.45
2019-04-03T11:24:01.664Z,12.46
2019-04-03T11:26:31.097Z,12.52
2019-04-03T11:29:00.741Z,12.62
2019-04-03T11:31:33.579Z,12.69
2019-04-03T11:34:20.406Z,12.78
2019-04-03T11:39:33.475Z,12.76
2019-04-03T11:44:57.340Z,12.96
2019-04-03T11:47:40.423Z,12.96
2019-04-03T11:50:49.249Z,12.98
2019-04-03T11:56:13.987Z,13.08
2019-04-03T11:58:44.649Z,13.10
2019-04-03T12:04:31.288Z,13.06
2019-04-03T12:07:00.861Z,13.07
2019-04-03T12:09:31.660Z,12.85
2019-04-03T12:12:01.590Z,12.66
2019-04-03T12:14:31.242Z,12.49
2019-04-03T12:17:00.725Z,12.46
2019-04-03T12:19:30.443Z,12.44
2019-04-03T12:21:59.895Z,12.47
2019-04-03T12:24:29.385Z,12.53
2019-04-03T12:26:58.846Z,12.56
2019-04-03T12:29:28.495Z,12.59
2019-04-03T12:31:58.181Z,12.54
2019-04-03T12:34:27.700Z,12.63
2019-04-03T12:36:57.158Z,12.68
2019-04-03T12:39:27.864Z,12.66
2019-04-03T12:41:58.271Z,12.64
2019-04-03T12:44:41.426Z,12.55
2019-04-03T12:49:45.524Z,12.51
2019-04-03T12:52:15.263Z,12.39
2019-04-03T12:54:58.120Z,12.33
2019-04-03T12:57:27.894Z,12.16
2019-04-03T12:59:57.852Z,12.05
2019-04-03T13:02:46.256Z,12.00
2019-04-03T13:08:29.799Z,11.88
2019-04-03T13:10:59.499Z,11.79
2019-04-03T13:13:28.996Z,11.78
2019-04-03T13:15:58.933Z,11.81
2019-04-03T13:18:28.854Z,11.86
2019-04-03T13:20:58.845Z,11.91
2019-04-03T13:23:28.255Z,12.03
2019-04-03T13:25:57.719Z,12.20
2019-04-03T13:28:46.093Z,12.39
2019-04-03T13:31:27.736Z,12.58
2019-04-03T13:33:57.287Z,12.65
2019-04-03T13:36:26.683Z,12.76
2019-04-03T13:38:58.150Z,12.82
2019-04-03T13:49:19.207Z,12.56
2019-04-03T13:51:50.745Z,12.46
2019-04-03T13:54:20.606Z,12.39
2019-04-03T13:57:01.204Z,12.35
2019-04-03T13:59:30.660Z,12.23
2019-04-03T14:02:00.163Z,12.14
2019-04-03T14:04:30.051Z,11.98
2019-04-03T14:07:03.762Z,11.93
2019-04-03T14:09:45.087Z,11.89
2019-04-03T14:12:36.540Z,11.87
2019-04-03T14:15:05.486Z,11.82
2019-04-03T14:17:40.054Z,11.78
2019-04-03T14:23:36.494Z,11.74
2019-04-03T14:26:08.019Z,11.88
2019-04-03T14:28:58.196Z,11.96
2019-04-03T14:31:34.688Z,11.95
2019-04-03T14:34:00.368Z,12.01
2019-04-03T14:36:29.978Z,12.06
2019-04-03T14:39:03.509Z,12.14
2019-04-03T14:41:35.274Z,12.09
2019-04-03T14:44:06.961Z,12.14
2019-04-03T14:46:36.389Z,12.14
2019-04-03T14:49:09.206Z,12.16
2019-04-03T14:51:38.907Z,12.19
2019-04-03T14:54:10.118Z,12.21
2019-04-03T14:56:40.043Z,12.14
2019-04-03T14:59:13.716Z,12.09
2019-04-03T15:01:42.157Z,12.07
2019-04-03T15:04:36.108Z,12.04
2019-04-03T15:07:07.757Z,11.99
2019-04-03T15:09:33.020Z,11.96
2019-04-03T15:12:02.747Z,11.87
2019-04-03T15:14:32.469Z,11.87
2019-04-03T15:17:04.253Z,11.87
2019-04-03T15:19:39.207Z,11.83
2019-04-03T15:22:11.620Z,11.69
2019-04-03T15:25:07.487Z,11.52
2019-04-03T15:27:37.236Z,11.41
2019-04-03T15:30:12.662Z,11.30
2019-04-03T15:32:42.415Z,11.22
2019-04-03T15:35:12.514Z,11.23
2019-04-03T15:37:52.331Z,11.22
2019-04-03T15:40:25.887Z,11.16
2019-04-03T15:45:38.166Z,11.09
2019-04-03T15:51:01.253Z,11.12
2019-04-03T15:53:31.869Z,11.10
2019-04-03T15:56:01.513Z,11.02
2019-04-03T15:58:31.014Z,10.99
2019-04-03T16:01:00.567Z,10.99
2019-04-03T16:03:31.941Z,11.05
2019-04-03T16:08:53.566Z,11.17
2019-04-03T16:11:43.793Z,11.25
2019-04-03T16:14:13.693Z,11.35
2019-04-03T16:16:48.007Z,11.39
2019-04-03T16:19:17.769Z,11.42
2019-04-03T16:21:47.241Z,11.44
2019-04-03T16:24:16.878Z,11.38
2019-04-03T16:26:48.255Z,11.24
2019-04-03T16:29:31.670Z,11.07
2019-04-03T16:31:54.133Z,10.91
2019-04-03T16:34:23.161Z,10.78
2019-04-03T16:39:54.837Z,10.56
2019-04-03T16:48:08.652Z,10.34
2019-04-03T16:50:39.650Z,10.21
2019-04-03T16:53:10.730Z,10.11
2019-04-03T16:55:40.305Z,9.96
2019-04-03T16:58:12.527Z,9.84
2019-04-03T17:00:42.829Z,9.77
2019-04-03T17:03:16.400Z,9.65
2019-04-03T17:08:21.752Z,9.53
2019-04-03T17:10:51.258Z,9.47
2019-04-03T17:16:29.658Z,9.46
2019-04-03T17:18:59.165Z,9.39
2019-04-03T17:21:35.768Z,9.34
2019-04-03T17:24:00.282Z,9.31
2019-04-03T17:26:29.775Z,9.26
2019-04-03T17:29:03.856Z,9.23
2019-04-03T17:31:30.790Z,9.17
2019-04-03T17:34:02.380Z,9.08
2019-04-03T17:36:43.074Z,8.98
2019-04-03T17:39:12.803Z,8.93
2019-04-03T17:41:42.545Z,8.84
2019-04-03T17:46:48.929Z,8.72
2019-04-03T17:49:29.731Z,8.69
2019-04-03T17:51:59.293Z,8.58
2019-04-03T17:54:28.711Z,8.50
2019-04-03T17:56:58.229Z,8.42
2019-04-03T17:59:27.636Z,8.33
2019-04-03T18:01:58.154Z,8.24
2019-04-03T18:04:27.824Z,8.18
2019-04-03T18:06:57.990Z,8.11
2019-04-03T18:09:28.580Z,8.04
2019-04-03T18:11:58.222Z,7.97
2019-04-03T18:14:29.246Z,7.94
2019-04-03T18:17:01.169Z,7.92
2019-04-03T18:19:37.306Z,7.86
2019-04-03T18:22:01.165Z,7.85
2019-04-03T18:24:30.605Z,7.85
2019-04-03T18:27:02.251Z,7.79
2019-04-03T18:29:31.181Z,7.77
2019-04-03T18:34:55.710Z,7.74
2019-04-03T18:37:24.314Z,7.70
2019-04-03T18:39:53.720Z,7.67
2019-04-03T18:42:23.115Z,7.61
2019-04-03T18:47:40.544Z,7.56
2019-04-03T18:50:03.544Z,7.56
2019-04-03T18:52:38.548Z,7.52
2019-04-03T18:55:27.432Z,7.49
2019-04-03T19:03:17.013Z,7.46
2019-04-03T19:08:27.631Z,7.39
2019-04-03T19:14:03.754Z,7.37
2019-04-03T19:16:46.329Z,7.33
2019-04-03T19:19:16.324Z,7.31
2019-04-03T19:21:44.800Z,7.24
2019-04-03T19:24:14.322Z,7.19
2019-04-03T19:26:43.937Z,7.17
2019-04-03T19:29:13.467Z,7.18
2019-04-03T19:31:43.256Z,7.21
2019-04-03T19:37:11.854Z,7.19
2019-04-03T19:42:06.965Z,7.19
2019-04-03T19:44:49.767Z,7.19
2019-04-03T19:47:19.497Z,7.17
2019-04-03T19:50:07.908Z,7.12
2019-04-03T19:52:41.589Z,7.12
2019-04-03T19:55:29.247Z,7.06
2019-04-03T19:58:13.097Z,7.04
2019-04-03T20:00:30.510Z,7.02
2019-04-03T20:03:14.197Z,6.98
2019-04-03T20:05:44.440Z,6.95
2019-04-03T20:08:13.947Z,6.92
2019-04-03T20:10:43.438Z,6.91
2019-04-03T20:13:13.038Z,6.90
2019-04-03T20:15:42.534Z,6.88
2019-04-03T20:18:30.947Z,6.86
2019-04-03T20:21:03.574Z,6.87
2019-04-03T20:23:44.374Z,6.82
2019-04-03T20:26:32.686Z,6.76
2019-04-03T20:29:02.572Z,6.71
2019-04-03T20:31:31.980Z,6.70
2019-04-03T20:34:01.717Z,6.69
2019-04-03T20:39:08.790Z,6.70
2019-04-03T20:41:38.419Z,6.76
2019-04-03T20:44:08.029Z,6.75
2019-04-03T20:46:37.685Z,6.77
2019-04-03T20:51:35.337Z,6.76
2019-04-03T20:54:04.823Z,6.76
2019-04-03T20:56:57.545Z,6.78
2019-04-03T20:59:24.518Z,6.80
2019-04-03T21:01:54.101Z,6.81
2019-04-03T21:04:25.561Z,6.80
2019-04-03T21:06:55.039Z,6.80
2019-04-03T21:09:24.696Z,6.80
2019-04-03T21:11:54.117Z,6.82
2019-04-03T21:14:23.575Z,6.82
2019-04-03T21:16:56.172Z,6.83
2019-04-03T21:19:26.783Z,6.82
2019-04-03T21:22:15.091Z,6.84
2019-04-03T21:24:56.669Z,6.84
2019-04-03T21:27:26.059Z,6.81
2019-04-03T21:29:58.100Z,6.77
2019-04-03T21:32:28.644Z,6.72
2019-04-03T21:34:58.015Z,6.69
2019-04-03T21:37:27.418Z,6.66
2019-04-03T21:39:56.882Z,6.64
2019-04-03T21:42:26.990Z,6.60
2019-04-03T21:44:57.489Z,6.57
2019-04-03T21:47:27.034Z,6.55
2019-04-03T21:49:56.434Z,6.55
2019-04-03T21:52:25.923Z,6.57
2019-04-03T21:54:58.404Z,6.55
2019-04-03T22:00:01.174Z,6.49
2019-04-03T22:02:30.711Z,6.40
2019-04-03T22:05:00.129Z,6.36
2019-04-03T22:07:29.523Z,6.33
2019-04-03T22:10:01.612Z,6.28
2019-04-03T22:12:30.230Z,6.25
2019-04-03T22:15:14.607Z,6.21
2019-04-03T22:18:02.987Z,6.17
2019-04-03T22:20:44.411Z,6.13
2019-04-03T22:23:14.286Z,6.08
2019-04-03T22:28:34.534Z,6.01
2019-04-03T22:31:06.429Z,6.02
2019-04-03T22:33:35.830Z,5.97
2019-04-03T22:38:40.361Z,5.91
2019-04-03T22:41:12.120Z,5.92
2019-04-03T22:43:44.136Z,5.94
2019-04-03T22:46:15.007Z,5.95
2019-04-03T22:48:44.400Z,5.93
2019-04-03T22:51:13.843Z,5.94
2019-04-03T22:53:46.182Z,5.90
2019-04-03T22:59:04.078Z,5.89
2019-04-03T23:01:33.538Z,5.88
2019-04-03T23:04:04.951Z,5.87
2019-04-03T23:06:34.127Z,5.88
2019-04-03T23:09:24.682Z,5.87
2019-04-03T23:11:53.966Z,5.86
2019-04-03T23:14:23.417Z,5.83
2019-04-03T23:17:01.246Z,5.81
2019-04-03T23:22:45.589Z,5.79
2019-04-03T23:25:15.007Z,5.78
2019-04-03T23:27:44.366Z,5.76
2019-04-03T23:30:13.880Z,5.72
2019-04-03T23:32:45.715Z,5.70
2019-04-03T23:35:14.471Z,5.69
2019-04-03T23:37:43.954Z,5.61
2019-04-03T23:40:13.412Z,5.63
2019-04-03T23:47:55.755Z,5.53
2019-04-03T23:53:21.337Z,5.50
2019-04-03T23:55:55.323Z,5.48
2019-04-03T23:58:24.747Z,5.46
